sensor_id;sensor_type;location;lat;lon;timestamp;pressure;altitude;pressure_sealevel;temperature;humidity
45078;BME280;60508;42.622;25.416;2023-04-08T00:00:11;96981.56;;;8.84;65.29
45078;BME280;60508;42.622;25.416;2023-04-08T00:02:38;96974.50;;;8.71;65.90
45078;BME280;60508;42.622;25.416;2023-04-08T00:05:05;96986.19;;;8.77;65.58
45078;BME280;60508;42.622;25.416;2023-04-08T00:07:31;96969.50;;;8.75;65.91
45078;BME280;60508;42.622;25.416;2023-04-08T00:09:58;96975.31;;;8.72;65.51
45078;BME280;60508;42.622;25.416;2023-04-08T00:12:24;96972.06;;;8.70;66.05
45078;BME280;60508;42.622;25.416;2023-04-08T00:14:51;96968.94;;;8.73;65.95
45078;BME280;60508;42.622;25.416;2023-04-08T00:17:17;96973.38;;;8.79;66.15
45078;BME280;60508;42.622;25.416;2023-04-08T00:19:43;96979.84;;;8.90;65.59
45078;BME280;60508;42.622;25.416;2023-04-08T00:22:10;96979.84;;;8.90;65.75
45078;BME280;60508;42.622;25.416;2023-04-08T00:24:36;96979.41;;;9.05;63.73
45078;BME280;60508;42.622;25.416;2023-04-08T00:27:02;96977.88;;;8.97;63.71
45078;BME280;60508;42.622;25.416;2023-04-08T00:29:28;96983.09;;;8.92;64.68
45078;BME280;60508;42.622;25.416;2023-04-08T00:31:55;96978.75;;;8.79;65.25
45078;BME280;60508;42.622;25.416;2023-04-08T00:34:22;96980.56;;;8.97;64.48
45078;BME280;60508;42.622;25.416;2023-04-08T00:36:48;96977.22;;;8.83;65.67
45078;BME280;60508;42.622;25.416;2023-04-08T00:39:14;96981.59;;;8.96;65.99
45078;BME280;60508;42.622;25.416;2023-04-08T00:41:40;96985.56;;;8.93;65.56
45078;BME280;60508;42.622;25.416;2023-04-08T00:44:06;96982.31;;;8.91;64.14
45078;BME280;60508;42.622;25.416;2023-04-08T00:46:35;96990.41;;;8.85;64.23
45078;BME280;60508;42.622;25.416;2023-04-08T00:49:02;96979.88;;;8.71;64.37
45078;BME280;60508;42.622;25.416;2023-04-08T00:51:29;96985.00;;;8.73;63.51
45078;BME280;60508;42.622;25.416;2023-04-08T00:53:56;96989.09;;;8.75;63.16
45078;BME280;60508;42.622;25.416;2023-04-08T00:56:23;96980.84;;;8.77;63.80
45078;BME280;60508;42.622;25.416;2023-04-08T00:58:50;96977.19;;;8.71;63.83
45078;BME280;60508;42.622;25.416;2023-04-08T01:01:44;96988.72;;;8.72;63.18
45078;BME280;60508;42.622;25.416;2023-04-08T01:06:52;96992.00;;;8.74;63.54
45078;BME280;60508;42.622;25.416;2023-04-08T01:09:24;96987.00;;;8.77;63.07
45078;BME280;60508;42.622;25.416;2023-04-08T01:11:53;96985.72;;;8.50;64.61
45078;BME280;60508;42.622;25.416;2023-04-08T01:14:25;96995.00;;;8.47;65.08
45078;BME280;60508;42.622;25.416;2023-04-08T01:16:57;96990.41;;;8.54;65.14
45078;BME280;60508;42.622;25.416;2023-04-08T01:19:33;96989.34;;;8.55;65.12
45078;BME280;60508;42.622;25.416;2023-04-08T01:22:32;96983.41;;;8.53;66.07
45078;BME280;60508;42.622;25.416;2023-04-08T01:25:04;96989.44;;;8.49;66.59
45078;BME280;60508;42.622;25.416;2023-04-08T01:27:33;96988.47;;;8.43;67.25
45078;BME280;60508;42.622;25.416;2023-04-08T01:30:02;96992.91;;;8.49;67.47
45078;BME280;60508;42.622;25.416;2023-04-08T01:32:30;96980.44;;;8.43;67.91
45078;BME280;60508;42.622;25.416;2023-04-08T01:34:57;96986.00;;;8.41;68.56
45078;BME280;60508;42.622;25.416;2023-04-08T01:37:27;96981.84;;;8.46;68.87
45078;BME280;60508;42.622;25.416;2023-04-08T01:39:54;96975.28;;;8.41;69.04
45078;BME280;60508;42.622;25.416;2023-04-08T01:42:24;96972.19;;;8.45;68.36
45078;BME280;60508;42.622;25.416;2023-04-08T01:44:55;96979.53;;;8.49;68.18
45078;BME280;60508;42.622;25.416;2023-04-08T01:47:22;96980.44;;;8.43;68.10
45078;BME280;60508;42.622;25.416;2023-04-08T01:49:50;96985.91;;;8.30;68.34
45078;BME280;60508;42.622;25.416;2023-04-08T01:52:19;96989.25;;;8.07;68.54
45078;BME280;60508;42.622;25.416;2023-04-08T01:54:45;96990.88;;;7.89;69.50
45078;BME280;60508;42.622;25.416;2023-04-08T01:57:16;96986.81;;;8.05;69.60
45078;BME280;60508;42.622;25.416;2023-04-08T01:59:47;96986.44;;;8.01;69.34
45078;BME280;60508;42.622;25.416;2023-04-08T02:02:16;96998.50;;;8.11;69.89
45078;BME280;60508;42.622;25.416;2023-04-08T02:04:43;96989.78;;;8.15;69.49
45078;BME280;60508;42.622;25.416;2023-04-08T02:07:10;97003.84;;;8.29;69.09
45078;BME280;60508;42.622;25.416;2023-04-08T02:09:37;96998.50;;;8.48;68.43
45078;BME280;60508;42.622;25.416;2023-04-08T02:12:03;97006.53;;;8.48;68.07
45078;BME280;60508;42.622;25.416;2023-04-08T02:14:29;97002.06;;;8.23;69.06
45078;BME280;60508;42.622;25.416;2023-04-08T02:17:04;97000.03;;;8.18;69.38
45078;BME280;60508;42.622;25.416;2023-04-08T02:19:51;97001.91;;;8.18;69.06
45078;BME280;60508;42.622;25.416;2023-04-08T02:22:59;96997.06;;;8.27;69.94
45078;BME280;60508;42.622;25.416;2023-04-08T02:25:28;96997.22;;;8.32;69.93
45078;BME280;60508;42.622;25.416;2023-04-08T02:27:56;96987.94;;;8.16;70.42
45078;BME280;60508;42.622;25.416;2023-04-08T02:30:24;97000.69;;;8.14;71.48
45078;BME280;60508;42.622;25.416;2023-04-08T02:32:52;96993.13;;;8.11;71.53
45078;BME280;60508;42.622;25.416;2023-04-08T02:35:19;97005.75;;;8.03;71.95
45078;BME280;60508;42.622;25.416;2023-04-08T02:37:46;96993.66;;;8.01;71.72
45078;BME280;60508;42.622;25.416;2023-04-08T02:40:26;97008.50;;;8.15;71.58
45078;BME280;60508;42.622;25.416;2023-04-08T02:42:53;97006.00;;;8.20;71.01
45078;BME280;60508;42.622;25.416;2023-04-08T02:45:20;97008.72;;;8.14;71.66
45078;BME280;60508;42.622;25.416;2023-04-08T02:47:49;97002.72;;;8.18;71.51
45078;BME280;60508;42.622;25.416;2023-04-08T02:50:15;97002.88;;;8.23;71.53
45078;BME280;60508;42.622;25.416;2023-04-08T02:52:41;97002.94;;;8.17;71.70
45078;BME280;60508;42.622;25.416;2023-04-08T02:55:08;97007.25;;;8.18;71.89
45078;BME280;60508;42.622;25.416;2023-04-08T02:57:36;97011.38;;;8.20;72.01
45078;BME280;60508;42.622;25.416;2023-04-08T03:00:03;97013.63;;;8.17;71.89
45078;BME280;60508;42.622;25.416;2023-04-08T03:02:30;97022.50;;;7.74;73.24
45078;BME280;60508;42.622;25.416;2023-04-08T03:04:56;97018.91;;;7.86;72.99
45078;BME280;60508;42.622;25.416;2023-04-08T03:07:22;97016.16;;;7.93;73.11
45078;BME280;60508;42.622;25.416;2023-04-08T03:09:48;97015.13;;;8.13;72.47
45078;BME280;60508;42.622;25.416;2023-04-08T03:12:14;97016.56;;;8.34;71.95
45078;BME280;60508;42.622;25.416;2023-04-08T03:14:40;97025.84;;;8.31;71.28
45078;BME280;60508;42.622;25.416;2023-04-08T03:17:06;97026.25;;;8.35;71.70
45078;BME280;60508;42.622;25.416;2023-04-08T03:19:32;97026.25;;;8.35;71.38
45078;BME280;60508;42.622;25.416;2023-04-08T03:21:58;97031.19;;;8.31;72.25
45078;BME280;60508;42.622;25.416;2023-04-08T03:24:23;97037.84;;;8.29;72.15
45078;BME280;60508;42.622;25.416;2023-04-08T03:26:50;97027.25;;;8.15;73.04
45078;BME280;60508;42.622;25.416;2023-04-08T03:29:15;97032.38;;;7.73;75.11
45078;BME280;60508;42.622;25.416;2023-04-08T03:31:41;97026.50;;;7.64;75.15
45078;BME280;60508;42.622;25.416;2023-04-08T03:34:08;97034.69;;;7.70;75.12
45078;BME280;60508;42.622;25.416;2023-04-08T03:36:34;97037.78;;;7.66;75.16
45078;BME280;60508;42.622;25.416;2023-04-08T03:39:00;97041.09;;;7.37;76.21
45078;BME280;60508;42.622;25.416;2023-04-08T03:41:28;97050.84;;;7.24;77.36
45078;BME280;60508;42.622;25.416;2023-04-08T03:43:54;97057.94;;;7.37;77.17
45078;BME280;60508;42.622;25.416;2023-04-08T03:46:21;97054.41;;;7.43;76.51
45078;BME280;60508;42.622;25.416;2023-04-08T03:48:47;97051.59;;;7.63;76.01
45078;BME280;60508;42.622;25.416;2023-04-08T03:51:13;97049.75;;;7.64;75.92
45078;BME280;60508;42.622;25.416;2023-04-08T03:53:40;97055.59;;;7.47;75.83
45078;BME280;60508;42.622;25.416;2023-04-08T03:56:06;97061.34;;;7.19;77.55
45078;BME280;60508;42.622;25.416;2023-04-08T03:58:32;97060.41;;;7.39;77.33
45078;BME280;60508;42.622;25.416;2023-04-08T04:00:58;97054.25;;;7.63;76.32
45078;BME280;60508;42.622;25.416;2023-04-08T04:03:24;97055.84;;;7.71;75.96
45078;BME280;60508;42.622;25.416;2023-04-08T04:05:50;97050.72;;;7.70;76.05
45078;BME280;60508;42.622;25.416;2023-04-08T04:08:16;97048.38;;;7.80;75.36
45078;BME280;60508;42.622;25.416;2023-04-08T04:10:42;97052.63;;;7.88;75.07
45078;BME280;60508;42.622;25.416;2023-04-08T04:13:07;97045.16;;;7.96;74.74
45078;BME280;60508;42.622;25.416;2023-04-08T04:15:37;97046.19;;;7.95;74.90
45078;BME280;60508;42.622;25.416;2023-04-08T04:18:04;97058.75;;;7.95;74.65
45078;BME280;60508;42.622;25.416;2023-04-08T04:20:30;97057.03;;;8.00;74.48
45078;BME280;60508;42.622;25.416;2023-04-08T04:22:56;97054.50;;;8.05;74.24
45078;BME280;60508;42.622;25.416;2023-04-08T04:25:23;97050.56;;;7.90;74.66
45078;BME280;60508;42.622;25.416;2023-04-08T04:27:49;97041.81;;;8.01;75.03
45078;BME280;60508;42.622;25.416;2023-04-08T04:30:15;97048.94;;;8.07;74.52
45078;BME280;60508;42.622;25.416;2023-04-08T04:32:41;97051.63;;;8.07;74.42
45078;BME280;60508;42.622;25.416;2023-04-08T04:35:11;97045.47;;;8.07;74.46
45078;BME280;60508;42.622;25.416;2023-04-08T04:37:38;97037.44;;;8.07;74.34
45078;BME280;60508;42.622;25.416;2023-04-08T04:40:04;97042.88;;;8.18;74.29
45078;BME280;60508;42.622;25.416;2023-04-08T04:42:31;97049.94;;;8.31;74.15
45078;BME280;60508;42.622;25.416;2023-04-08T04:44:58;97046.03;;;8.52;72.69
45078;BME280;60508;42.622;25.416;2023-04-08T04:47:24;97029.19;;;8.27;72.98
45078;BME280;60508;42.622;25.416;2023-04-08T04:49:50;97046.34;;;8.44;73.05
45078;BME280;60508;42.622;25.416;2023-04-08T04:52:16;97053.63;;;8.55;72.39
45078;BME280;60508;42.622;25.416;2023-04-08T04:54:43;97053.22;;;8.33;73.18
45078;BME280;60508;42.622;25.416;2023-04-08T04:57:08;97056.94;;;8.32;73.80
45078;BME280;60508;42.622;25.416;2023-04-08T04:59:36;97059.41;;;8.34;73.67
45078;BME280;60508;42.622;25.416;2023-04-08T05:02:02;97054.63;;;8.36;73.49
45078;BME280;60508;42.622;25.416;2023-04-08T05:04:28;97050.25;;;8.41;73.46
45078;BME280;60508;42.622;25.416;2023-04-08T05:06:54;97055.78;;;8.47;73.76
45078;BME280;60508;42.622;25.416;2023-04-08T05:09:20;97064.63;;;8.47;73.45
45078;BME280;60508;42.622;25.416;2023-04-08T05:11:46;97057.38;;;8.54;73.24
45078;BME280;60508;42.622;25.416;2023-04-08T05:14:12;97072.28;;;8.62;72.42
45078;BME280;60508;42.622;25.416;2023-04-08T05:16:38;97060.53;;;8.63;73.00
45078;BME280;60508;42.622;25.416;2023-04-08T05:19:04;97059.75;;;8.63;72.92
45078;BME280;60508;42.622;25.416;2023-04-08T05:21:30;97061.81;;;8.61;72.85
45078;BME280;60508;42.622;25.416;2023-04-08T05:23:57;97059.50;;;8.64;73.00
45078;BME280;60508;42.622;25.416;2023-04-08T05:26:23;97064.13;;;8.57;72.94
45078;BME280;60508;42.622;25.416;2023-04-08T05:28:49;97069.31;;;8.70;72.50
45078;BME280;60508;42.622;25.416;2023-04-08T05:31:17;97061.13;;;8.84;71.23
45078;BME280;60508;42.622;25.416;2023-04-08T05:33:44;97061.13;;;8.84;70.97
45078;BME280;60508;42.622;25.416;2023-04-08T05:36:11;97062.91;;;8.71;71.58
45078;BME280;60508;42.622;25.416;2023-04-08T05:38:38;97056.66;;;8.59;71.79
45078;BME280;60508;42.622;25.416;2023-04-08T05:41:05;97050.28;;;8.79;71.42
45078;BME280;60508;42.622;25.416;2023-04-08T05:43:34;97066.72;;;8.82;71.55
45078;BME280;60508;42.622;25.416;2023-04-08T05:46:08;97055.06;;;8.33;71.03
45078;BME280;60508;42.622;25.416;2023-04-08T05:48:35;97064.03;;;8.45;72.27
45078;BME280;60508;42.622;25.416;2023-04-08T05:51:01;97070.00;;;8.66;71.71
45078;BME280;60508;42.622;25.416;2023-04-08T05:53:28;97066.34;;;8.79;71.08
45078;BME280;60508;42.622;25.416;2023-04-08T05:55:54;97075.50;;;8.71;70.99
45078;BME280;60508;42.622;25.416;2023-04-08T05:58:20;97073.03;;;8.88;70.83
45078;BME280;60508;42.622;25.416;2023-04-08T06:00:47;97074.09;;;9.17;69.22
45078;BME280;60508;42.622;25.416;2023-04-08T06:03:12;97078.59;;;9.05;69.43
45078;BME280;60508;42.622;25.416;2023-04-08T06:05:38;97070.25;;;9.13;69.21
45078;BME280;60508;42.622;25.416;2023-04-08T06:08:04;97072.91;;;9.13;69.05
45078;BME280;60508;42.622;25.416;2023-04-08T06:10:30;97070.69;;;9.10;69.59
45078;BME280;60508;42.622;25.416;2023-04-08T06:12:56;97075.19;;;9.28;68.59
45078;BME280;60508;42.622;25.416;2023-04-08T06:15:22;97076.28;;;9.39;68.44
45078;BME280;60508;42.622;25.416;2023-04-08T06:17:48;97086.91;;;9.45;68.01
45078;BME280;60508;42.622;25.416;2023-04-08T06:20:14;97083.22;;;9.58;67.08
45078;BME280;60508;42.622;25.416;2023-04-08T06:22:40;97099.31;;;9.70;66.06
45078;BME280;60508;42.622;25.416;2023-04-08T06:25:06;97090.03;;;9.42;66.75
45078;BME280;60508;42.622;25.416;2023-04-08T06:27:32;97095.50;;;9.36;66.79
45078;BME280;60508;42.622;25.416;2023-04-08T06:29:57;97092.16;;;9.40;66.82
45078;BME280;60508;42.622;25.416;2023-04-08T06:32:25;97101.53;;;9.61;65.46
45078;BME280;60508;42.622;25.416;2023-04-08T06:34:51;97096.16;;;9.61;65.40
45078;BME280;60508;42.622;25.416;2023-04-08T06:37:17;97095.38;;;9.61;65.41
45078;BME280;60508;42.622;25.416;2023-04-08T06:39:44;97074.81;;;9.55;65.92
45078;BME280;60508;42.622;25.416;2023-04-08T06:42:10;97095.38;;;9.73;65.57
45078;BME280;60508;42.622;25.416;2023-04-08T06:45:03;97103.91;;;9.81;65.58
45078;BME280;60508;42.622;25.416;2023-04-08T06:47:29;97109.38;;;9.86;65.44
45078;BME280;60508;42.622;25.416;2023-04-08T06:49:55;97102.41;;;9.97;64.68
45078;BME280;60508;42.622;25.416;2023-04-08T06:52:21;97102.78;;;10.13;64.14
45078;BME280;60508;42.622;25.416;2023-04-08T06:54:47;97103.84;;;10.12;63.90
45078;BME280;60508;42.622;25.416;2023-04-08T06:57:13;97106.66;;;10.29;63.54
45078;BME280;60508;42.622;25.416;2023-04-08T06:59:40;97114.47;;;10.30;62.90
45078;BME280;60508;42.622;25.416;2023-04-08T07:02:07;97108.84;;;10.20;62.93
45078;BME280;60508;42.622;25.416;2023-04-08T07:04:35;97111.72;;;10.37;63.11
45078;BME280;60508;42.622;25.416;2023-04-08T07:07:04;97118.00;;;10.54;63.05
45078;BME280;60508;42.622;25.416;2023-04-08T07:09:30;97119.50;;;10.62;62.01
45078;BME280;60508;42.622;25.416;2023-04-08T07:11:57;97122.88;;;10.81;61.53
45078;BME280;60508;42.622;25.416;2023-04-08T07:14:25;97124.97;;;10.91;60.75
45078;BME280;60508;42.622;25.416;2023-04-08T07:16:51;97125.78;;;10.91;60.73
45078;BME280;60508;42.622;25.416;2023-04-08T07:19:16;97126.97;;;10.84;60.55
45078;BME280;60508;42.622;25.416;2023-04-08T07:21:43;97124.34;;;11.01;60.60
45078;BME280;60508;42.622;25.416;2023-04-08T07:24:09;97126.00;;;11.02;59.75
45078;BME280;60508;42.622;25.416;2023-04-08T07:26:35;97133.84;;;10.91;60.09
45078;BME280;60508;42.622;25.416;2023-04-08T07:29:00;97128.31;;;11.10;60.04
45078;BME280;60508;42.622;25.416;2023-04-08T07:31:26;97123.34;;;11.30;59.63
45078;BME280;60508;42.622;25.416;2023-04-08T07:33:52;97122.91;;;11.50;58.62
45078;BME280;60508;42.622;25.416;2023-04-08T07:36:18;97127.97;;;11.35;58.75
45078;BME280;60508;42.622;25.416;2023-04-08T07:38:46;97116.94;;;11.20;59.69
45078;BME280;60508;42.622;25.416;2023-04-08T07:41:12;97127.59;;;11.14;59.82
45078;BME280;60508;42.622;25.416;2023-04-08T07:43:38;97130.28;;;11.14;59.90
45078;BME280;60508;42.622;25.416;2023-04-08T07:46:05;97123.59;;;11.29;59.90
45078;BME280;60508;42.622;25.416;2023-04-08T07:48:32;97127.13;;;11.18;59.87
45078;BME280;60508;42.622;25.416;2023-04-08T07:51:09;97123.06;;;11.90;58.71
45078;BME280;60508;42.622;25.416;2023-04-08T07:53:38;97127.41;;;12.58;57.03
45078;BME280;60508;42.622;25.416;2023-04-08T07:56:09;97118.34;;;13.31;54.48
45078;BME280;60508;42.622;25.416;2023-04-08T07:58:36;97112.38;;;13.78;52.37
45078;BME280;60508;42.622;25.416;2023-04-08T08:01:03;97123.00;;;13.90;51.70
45078;BME280;60508;42.622;25.416;2023-04-08T08:03:29;97122.56;;;13.22;52.39
45078;BME280;60508;42.622;25.416;2023-04-08T08:05:55;97120.22;;;13.30;53.41
45078;BME280;60508;42.622;25.416;2023-04-08T08:08:22;97114.63;;;13.59;53.05
45078;BME280;60508;42.622;25.416;2023-04-08T08:10:48;97124.00;;;13.07;50.90
45078;BME280;60508;42.622;25.416;2023-04-08T08:13:14;97123.69;;;13.48;50.54
45078;BME280;60508;42.622;25.416;2023-04-08T08:15:42;97124.59;;;14.13;50.42
45078;BME280;60508;42.622;25.416;2023-04-08T08:18:08;97126.31;;;14.62;48.04
45078;BME280;60508;42.622;25.416;2023-04-08T08:20:34;97121.59;;;14.90;46.89
45078;BME280;60508;42.622;25.416;2023-04-08T08:23:00;97131.25;;;15.33;46.73
45078;BME280;60508;42.622;25.416;2023-04-08T08:25:26;97137.25;;;14.45;46.24
45078;BME280;60508;42.622;25.416;2023-04-08T08:27:52;97136.31;;;15.14;45.92
45078;BME280;60508;42.622;25.416;2023-04-08T08:30:18;97125.47;;;15.93;44.49
45078;BME280;60508;42.622;25.416;2023-04-08T08:32:46;97143.13;;;15.17;44.00
45078;BME280;60508;42.622;25.416;2023-04-08T08:35:11;97135.78;;;15.91;43.66
45078;BME280;60508;42.622;25.416;2023-04-08T08:37:37;97138.78;;;16.46;41.98
45078;BME280;60508;42.622;25.416;2023-04-08T08:40:04;97119.25;;;16.23;42.28
45078;BME280;60508;42.622;25.416;2023-04-08T08:42:30;97131.75;;;15.15;43.53
45078;BME280;60508;42.622;25.416;2023-04-08T08:44:56;97127.09;;;15.89;43.28
45078;BME280;60508;42.622;25.416;2023-04-08T08:47:22;97130.66;;;16.41;41.60
45078;BME280;60508;42.622;25.416;2023-04-08T08:49:48;97133.88;;;15.76;41.14
45078;BME280;60508;42.622;25.416;2023-04-08T08:52:15;97123.84;;;16.59;40.76
45078;BME280;60508;42.622;25.416;2023-04-08T08:54:43;97128.97;;;16.86;38.94
45078;BME280;60508;42.622;25.416;2023-04-08T08:57:16;97115.44;;;16.60;39.04
45078;BME280;60508;42.622;25.416;2023-04-08T08:59:47;97119.06;;;17.21;38.88
45078;BME280;60508;42.622;25.416;2023-04-08T09:02:24;97123.13;;;17.79;38.69
45078;BME280;60508;42.622;25.416;2023-04-08T09:04:59;97125.19;;;17.97;37.50
45078;BME280;60508;42.622;25.416;2023-04-08T09:07:27;97131.13;;;18.04;37.39
45078;BME280;60508;42.622;25.416;2023-04-08T09:09:55;97118.38;;;16.79;38.22
45078;BME280;60508;42.622;25.416;2023-04-08T09:12:22;97118.31;;;17.10;39.11
45078;BME280;60508;42.622;25.416;2023-04-08T09:14:49;97126.44;;;17.05;37.99
45078;BME280;60508;42.622;25.416;2023-04-08T09:17:34;97118.09;;;16.81;38.91
45078;BME280;60508;42.622;25.416;2023-04-08T09:20:08;97119.75;;;16.92;39.04
45078;BME280;60508;42.622;25.416;2023-04-08T09:25:24;97123.56;;;16.60;39.34
45078;BME280;60508;42.622;25.416;2023-04-08T09:27:50;97131.19;;;16.07;40.06
45078;BME280;60508;42.622;25.416;2023-04-08T09:30:18;97112.38;;;15.64;40.83
45078;BME280;60508;42.622;25.416;2023-04-08T09:32:51;97133.16;;;14.75;42.23
45078;BME280;60508;42.622;25.416;2023-04-08T09:35:18;97122.25;;;15.12;42.70
45078;BME280;60508;42.622;25.416;2023-04-08T09:37:45;97133.91;;;15.18;43.36
45078;BME280;60508;42.622;25.416;2023-04-08T09:40:12;97128.41;;;14.97;43.22
45078;BME280;60508;42.622;25.416;2023-04-08T09:42:43;97135.59;;;14.39;44.17
45078;BME280;60508;42.622;25.416;2023-04-08T09:45:09;97122.81;;;14.29;44.74
45078;BME280;60508;42.622;25.416;2023-04-08T09:47:51;97136.19;;;14.46;44.95
45078;BME280;60508;42.622;25.416;2023-04-08T09:50:26;97127.34;;;14.23;45.64
45078;BME280;60508;42.622;25.416;2023-04-08T09:53:01;97127.41;;;14.66;45.23
45078;BME280;60508;42.622;25.416;2023-04-08T09:55:36;97131.63;;;14.89;44.54
45078;BME280;60508;42.622;25.416;2023-04-08T09:58:15;97136.75;;;14.91;43.45
45078;BME280;60508;42.622;25.416;2023-04-08T10:00:48;97125.97;;;15.01;43.53
45078;BME280;60508;42.622;25.416;2023-04-08T10:03:26;97124.59;;;14.93;44.04
45078;BME280;60508;42.622;25.416;2023-04-08T10:05:54;97127.25;;;14.46;44.68
45078;BME280;60508;42.622;25.416;2023-04-08T10:08:22;97120.78;;;14.84;44.09
45078;BME280;60508;42.622;25.416;2023-04-08T10:10:50;97126.06;;;15.17;44.28
45078;BME280;60508;42.622;25.416;2023-04-08T10:13:16;97108.19;;;15.15;42.19
45078;BME280;60508;42.622;25.416;2023-04-08T10:15:43;97112.63;;;15.47;43.44
45078;BME280;60508;42.622;25.416;2023-04-08T10:20:46;97102.16;;;15.77;42.53
45078;BME280;60508;42.622;25.416;2023-04-08T10:23:14;97098.66;;;16.07;41.98
45078;BME280;60508;42.622;25.416;2023-04-08T10:25:44;97102.19;;;16.23;41.62
45078;BME280;60508;42.622;25.416;2023-04-08T10:35:46;97099.19;;;16.40;41.17
45078;BME280;60508;42.622;25.416;2023-04-08T10:38:14;97088.81;;;16.78;40.31
45078;BME280;60508;42.622;25.416;2023-04-08T10:40:42;97092.81;;;17.01;39.69
45078;BME280;60508;42.622;25.416;2023-04-08T10:43:10;97073.44;;;17.28;37.71
45078;BME280;60508;42.622;25.416;2023-04-08T10:45:37;97082.75;;;17.02;38.01
45078;BME280;60508;42.622;25.416;2023-04-08T10:48:23;97082.75;;;17.12;37.84
45078;BME280;60508;42.622;25.416;2023-04-08T10:50:58;97084.78;;;17.36;37.81
45078;BME280;60508;42.622;25.416;2023-04-08T10:55:51;97075.00;;;19.02;35.27
45078;BME280;60508;42.622;25.416;2023-04-08T10:58:18;97081.19;;;19.31;34.37
45078;BME280;60508;42.622;25.416;2023-04-08T11:00:44;97076.31;;;18.56;34.73
45078;BME280;60508;42.622;25.416;2023-04-08T11:03:11;97076.75;;;17.15;36.85
45078;BME280;60508;42.622;25.416;2023-04-08T11:05:37;97071.97;;;17.91;36.80
45078;BME280;60508;42.622;25.416;2023-04-08T11:08:04;97061.81;;;17.62;35.32
45078;BME280;60508;42.622;25.416;2023-04-08T11:10:36;97063.28;;;18.53;34.83
45078;BME280;60508;42.622;25.416;2023-04-08T11:13:02;97069.53;;;18.24;34.75
45078;BME280;60508;42.622;25.416;2023-04-08T11:15:32;97071.00;;;18.40;34.65
45078;BME280;60508;42.622;25.416;2023-04-08T11:17:59;97057.09;;;18.95;33.68
45078;BME280;60508;42.622;25.416;2023-04-08T11:20:26;97054.53;;;18.56;34.70
45078;BME280;60508;42.622;25.416;2023-04-08T11:22:52;97058.41;;;18.74;33.66
45078;BME280;60508;42.622;25.416;2023-04-08T11:25:18;97055.25;;;18.37;34.22
45078;BME280;60508;42.622;25.416;2023-04-08T11:27:44;97046.97;;;16.94;35.77
45078;BME280;60508;42.622;25.416;2023-04-08T11:30:12;97045.72;;;17.31;35.77
45078;BME280;60508;42.622;25.416;2023-04-08T11:32:38;97044.09;;;17.30;35.54
45078;BME280;60508;42.622;25.416;2023-04-08T11:35:05;97044.03;;;17.80;34.76
45078;BME280;60508;42.622;25.416;2023-04-08T11:37:39;97037.59;;;17.26;34.82
45078;BME280;60508;42.622;25.416;2023-04-08T11:40:07;97041.78;;;17.53;34.89
45078;BME280;60508;42.622;25.416;2023-04-08T11:42:33;97020.84;;;17.53;34.64
45078;BME280;60508;42.622;25.416;2023-04-08T11:44:59;97028.09;;;17.68;34.43
45078;BME280;60508;42.622;25.416;2023-04-08T11:47:35;97022.16;;;18.01;35.23
45078;BME280;60508;42.622;25.416;2023-04-08T11:50:01;97021.03;;;18.02;34.34
45078;BME280;60508;42.622;25.416;2023-04-08T11:52:48;97032.69;;;18.08;34.49
45078;BME280;60508;42.622;25.416;2023-04-08T11:55:29;97016.19;;;18.28;33.89
45078;BME280;60508;42.622;25.416;2023-04-08T11:58:00;97018.03;;;18.57;33.61
45078;BME280;60508;42.622;25.416;2023-04-08T12:00:26;97017.31;;;19.00;32.65
45078;BME280;60508;42.622;25.416;2023-04-08T12:02:52;97006.78;;;19.50;32.01
45078;BME280;60508;42.622;25.416;2023-04-08T12:05:19;97003.75;;;19.70;31.67
45078;BME280;60508;42.622;25.416;2023-04-08T12:07:46;97016.97;;;19.25;31.50
45078;BME280;60508;42.622;25.416;2023-04-08T12:10:12;97005.06;;;18.73;32.41
45078;BME280;60508;42.622;25.416;2023-04-08T12:12:39;96996.34;;;19.19;32.14
45078;BME280;60508;42.622;25.416;2023-04-08T12:15:06;97001.94;;;19.28;32.45
45078;BME280;60508;42.622;25.416;2023-04-08T12:17:33;97001.78;;;19.00;32.89
45078;BME280;60508;42.622;25.416;2023-04-08T12:20:00;96991.22;;;17.57;34.42
45078;BME280;60508;42.622;25.416;2023-04-08T12:22:26;96992.66;;;18.42;33.47
45078;BME280;60508;42.622;25.416;2023-04-08T12:24:52;96990.09;;;17.98;33.58
45078;BME280;60508;42.622;25.416;2023-04-08T12:27:18;96991.97;;;17.97;33.80
45078;BME280;60508;42.622;25.416;2023-04-08T12:29:45;96988.97;;;17.64;33.79
45078;BME280;60508;42.622;25.416;2023-04-08T12:32:11;96993.84;;;17.33;34.11
45078;BME280;60508;42.622;25.416;2023-04-08T12:34:38;96980.50;;;16.87;35.73
45078;BME280;60508;42.622;25.416;2023-04-08T12:37:04;96987.78;;;16.96;35.50
45078;BME280;60508;42.622;25.416;2023-04-08T12:39:30;96984.34;;;16.75;35.42
45078;BME280;60508;42.622;25.416;2023-04-08T12:41:56;96976.56;;;16.48;35.74
45078;BME280;60508;42.622;25.416;2023-04-08T12:44:22;96970.09;;;16.39;36.31
45078;BME280;60508;42.622;25.416;2023-04-08T12:46:49;96968.75;;;16.36;37.37
45078;BME280;60508;42.622;25.416;2023-04-08T12:49:15;96972.63;;;16.04;37.21
45078;BME280;60508;42.622;25.416;2023-04-08T12:51:41;96961.81;;;15.89;37.39
45078;BME280;60508;42.622;25.416;2023-04-08T12:54:07;96968.03;;;15.90;37.69
45078;BME280;60508;42.622;25.416;2023-04-08T12:56:33;96963.97;;;16.02;37.21
45078;BME280;60508;42.622;25.416;2023-04-08T12:59:00;96964.75;;;16.03;37.69
45078;BME280;60508;42.622;25.416;2023-04-08T13:01:26;96970.16;;;16.18;37.22
45078;BME280;60508;42.622;25.416;2023-04-08T13:03:52;96963.25;;;16.62;36.79
45078;BME280;60508;42.622;25.416;2023-04-08T13:06:18;96942.28;;;17.23;35.18
45078;BME280;60508;42.622;25.416;2023-04-08T13:08:45;96962.22;;;18.11;33.45
45078;BME280;60508;42.622;25.416;2023-04-08T13:11:12;96961.44;;;18.59;32.42
45078;BME280;60508;42.622;25.416;2023-04-08T13:13:38;96955.47;;;19.00;31.22
45078;BME280;60508;42.622;25.416;2023-04-08T13:16:05;96951.09;;;19.04;32.11